sensor_id;sensor_type;location;lat;lon;timestamp;P1;durP1;ratioP1;P2;durP2;ratioP2
14373;SDS011;7270;49.004;12.066;2023-04-25T00:02:13;1.07;;;1.07;;
14373;SDS011;7270;49.004;12.066;2023-04-25T00:04:40;1.00;;;1.00;;
14373;SDS011;7270;49.004;12.066;2023-04-25T00:07:06;1.20;;;1.20;;
14373;SDS011;7270;49.004;12.066;2023-04-25T00:09:34;1.20;;;1.20;;
14373;SDS011;7270;49.004;12.066;2023-04-25T00:12:00;1.10;;;1.10;;
14373;SDS011;7270;49.004;12.066;2023-04-25T00:14:27;1.10;;;1.10;;
14373;SDS011;7270;49.004;12.066;2023-04-25T00:16:53;1.20;;;1.20;;
14373;SDS011;7270;49.004;12.066;2023-04-25T00:19:20;1.10;;;1.10;;
14373;SDS011;7270;49.004;12.066;2023-04-25T00:21:46;1.10;;;1.10;;
14373;SDS011;7270;49.004;12.066;2023-04-25T00:24:12;1.00;;;1.00;;
14373;SDS011;7270;49.004;12.066;2023-04-25T00:26:40;1.10;;;1.10;;
14373;SDS011;7270;49.004;12.066;2023-04-25T00:29:07;1.10;;;1.10;;
14373;SDS011;7270;49.004;12.066;2023-04-25T00:31:33;1.20;;;1.20;;
14373;SDS011;7270;49.004;12.066;2023-04-25T00:33:59;1.10;;;1.10;;
14373;SDS011;7270;49.004;12.066;2023-04-25T00:36:26;1.20;;;1.20;;
14373;SDS011;7270;49.004;12.066;2023-04-25T00:38:52;1.20;;;1.20;;
14373;SDS011;7270;49.004;12.066;2023-04-25T00:41:18;1.10;;;1.10;;
14373;SDS011;7270;49.004;12.066;2023-04-25T00:43:46;1.00;;;1.00;;
14373;SDS011;7270;49.004;12.066;2023-04-25T00:46:13;1.30;;;1.20;;
14373;SDS011;7270;49.004;12.066;2023-04-25T00:48:40;1.10;;;1.10;;
14373;SDS011;7270;49.004;12.066;2023-04-25T00:51:06;1.00;;;1.00;;
14373;SDS011;7270;49.004;12.066;2023-04-25T00:53:32;1.10;;;1.10;;
14373;SDS011;7270;49.004;12.066;2023-04-25T00:55:59;1.10;;;1.10;;
14373;SDS011;7270;49.004;12.066;2023-04-25T00:58:25;1.10;;;1.10;;
14373;SDS011;7270;49.004;12.066;2023-04-25T01:00:53;1.17;;;1.17;;
14373;SDS011;7270;49.004;12.066;2023-04-25T01:03:21;1.20;;;1.20;;
14373;SDS011;7270;49.004;12.066;2023-04-25T01:05:49;0.97;;;0.97;;
14373;SDS011;7270;49.004;12.066;2023-04-25T01:08:16;1.20;;;1.20;;
14373;SDS011;7270;49.004;12.066;2023-04-25T01:10:42;1.10;;;1.10;;
14373;SDS011;7270;49.004;12.066;2023-04-25T01:13:08;1.10;;;1.10;;
14373;SDS011;7270;49.004;12.066;2023-04-25T01:15:35;1.17;;;1.13;;
14373;SDS011;7270;49.004;12.066;2023-04-25T01:18:03;1.10;;;1.10;;
14373;SDS011;7270;49.004;12.066;2023-04-25T01:20:29;1.07;;;1.07;;
14373;SDS011;7270;49.004;12.066;2023-04-25T01:22:59;1.00;;;1.00;;
14373;SDS011;7270;49.004;12.066;2023-04-25T01:25:25;1.00;;;1.00;;
14373;SDS011;7270;49.004;12.066;2023-04-25T01:27:52;1.10;;;1.10;;
14373;SDS011;7270;49.004;12.066;2023-04-25T01:30:18;1.00;;;1.00;;
14373;SDS011;7270;49.004;12.066;2023-04-25T01:32:44;1.13;;;1.13;;
14373;SDS011;7270;49.004;12.066;2023-04-25T01:35:11;1.20;;;1.20;;
14373;SDS011;7270;49.004;12.066;2023-04-25T01:37:38;1.10;;;1.10;;
14373;SDS011;7270;49.004;12.066;2023-04-25T01:40:07;1.10;;;1.10;;
14373;SDS011;7270;49.004;12.066;2023-04-25T01:42:34;1.10;;;1.10;;
14373;SDS011;7270;49.004;12.066;2023-04-25T01:45:00;0.97;;;0.97;;
14373;SDS011;7270;49.004;12.066;2023-04-25T01:47:27;1.07;;;1.07;;
14373;SDS011;7270;49.004;12.066;2023-04-25T01:49:53;1.00;;;1.00;;
14373;SDS011;7270;49.004;12.066;2023-04-25T01:52:19;1.10;;;1.10;;
14373;SDS011;7270;49.004;12.066;2023-04-25T01:54:46;1.10;;;1.10;;
14373;SDS011;7270;49.004;12.066;2023-04-25T01:57:14;1.00;;;1.00;;
14373;SDS011;7270;49.004;12.066;2023-04-25T01:59:41;1.10;;;1.10;;
14373;SDS011;7270;49.004;12.066;2023-04-25T02:02:07;1.10;;;1.10;;
14373;SDS011;7270;49.004;12.066;2023-04-25T02:04:34;1.10;;;1.10;;
14373;SDS011;7270;49.004;12.066;2023-04-25T02:07:00;1.10;;;1.10;;
14373;SDS011;7270;49.004;12.066;2023-04-25T02:09:26;1.00;;;1.00;;
14373;SDS011;7270;49.004;12.066;2023-04-25T02:11:53;0.93;;;0.93;;
14373;SDS011;7270;49.004;12.066;2023-04-25T02:14:20;1.10;;;1.10;;
14373;SDS011;7270;49.004;12.066;2023-04-25T02:16:47;1.00;;;1.00;;
14373;SDS011;7270;49.004;12.066;2023-04-25T02:19:13;1.10;;;1.10;;
14373;SDS011;7270;49.004;12.066;2023-04-25T02:21:39;1.10;;;1.10;;
14373;SDS011;7270;49.004;12.066;2023-04-25T02:24:06;1.20;;;1.20;;
14373;SDS011;7270;49.004;12.066;2023-04-25T02:26:33;1.20;;;1.20;;
14373;SDS011;7270;49.004;12.066;2023-04-25T02:28:59;1.10;;;1.10;;
14373;SDS011;7270;49.004;12.066;2023-04-25T02:31:27;1.10;;;1.10;;
14373;SDS011;7270;49.004;12.066;2023-04-25T02:33:55;1.07;;;1.07;;
14373;SDS011;7270;49.004;12.066;2023-04-25T02:36:21;1.20;;;1.20;;
14373;SDS011;7270;49.004;12.066;2023-04-25T02:38:49;1.07;;;1.07;;
14373;SDS011;7270;49.004;12.066;2023-04-25T02:41:15;1.00;;;1.00;;
14373;SDS011;7270;49.004;12.066;2023-04-25T02:43:41;0.97;;;0.97;;
14373;SDS011;7270;49.004;12.066;2023-04-25T02:46:07;1.00;;;1.00;;
14373;SDS011;7270;49.004;12.066;2023-04-25T02:48:35;1.00;;;1.00;;
14373;SDS011;7270;49.004;12.066;2023-04-25T02:51:01;1.10;;;1.10;;
14373;SDS011;7270;49.004;12.066;2023-04-25T02:53:28;1.00;;;1.00;;
14373;SDS011;7270;49.004;12.066;2023-04-25T02:55:54;1.10;;;1.10;;
14373;SDS011;7270;49.004;12.066;2023-04-25T02:58:23;1.07;;;1.07;;
14373;SDS011;7270;49.004;12.066;2023-04-25T03:00:49;1.00;;;1.00;;
14373;SDS011;7270;49.004;12.066;2023-04-25T03:03:16;1.20;;;1.20;;
14373;SDS011;7270;49.004;12.066;2023-04-25T03:05:44;1.10;;;1.10;;
14373;SDS011;7270;49.004;12.066;2023-04-25T03:08:11;1.20;;;1.20;;
14373;SDS011;7270;49.004;12.066;2023-04-25T03:10:38;1.10;;;1.10;;
14373;SDS011;7270;49.004;12.066;2023-04-25T03:13:04;1.10;;;1.10;;
14373;SDS011;7270;49.004;12.066;2023-04-25T03:15:32;1.10;;;1.10;;
14373;SDS011;7270;49.004;12.066;2023-04-25T03:17:58;1.10;;;1.10;;
14373;SDS011;7270;49.004;12.066;2023-04-25T03:20:25;1.10;;;1.10;;
14373;SDS011;7270;49.004;12.066;2023-04-25T03:22:52;1.03;;;1.03;;
14373;SDS011;7270;49.004;12.066;2023-04-25T03:25:19;1.00;;;1.00;;
14373;SDS011;7270;49.004;12.066;2023-04-25T03:27:45;1.20;;;1.20;;
14373;SDS011;7270;49.004;12.066;2023-04-25T03:30:12;1.10;;;1.10;;
14373;SDS011;7270;49.004;12.066;2023-04-25T03:32:38;1.10;;;1.10;;
14373;SDS011;7270;49.004;12.066;2023-04-25T03:35:05;1.10;;;1.10;;
14373;SDS011;7270;49.004;12.066;2023-04-25T03:37:31;1.00;;;1.00;;
14373;SDS011;7270;49.004;12.066;2023-04-25T03:39:59;1.10;;;1.10;;
14373;SDS011;7270;49.004;12.066;2023-04-25T03:42:25;1.20;;;1.20;;
14373;SDS011;7270;49.004;12.066;2023-04-25T03:44:52;1.10;;;1.10;;
14373;SDS011;7270;49.004;12.066;2023-04-25T03:47:18;1.10;;;1.10;;
14373;SDS011;7270;49.004;12.066;2023-04-25T03:49:44;1.10;;;1.10;;
14373;SDS011;7270;49.004;12.066;2023-04-25T03:52:10;1.10;;;1.10;;
14373;SDS011;7270;49.004;12.066;2023-04-25T03:54:37;1.10;;;1.10;;
14373;SDS011;7270;49.004;12.066;2023-04-25T03:57:04;1.20;;;1.20;;
14373;SDS011;7270;49.004;12.066;2023-04-25T03:59:31;1.10;;;1.10;;
14373;SDS011;7270;49.004;12.066;2023-04-25T04:01:57;1.20;;;1.20;;
14373;SDS011;7270;49.004;12.066;2023-04-25T04:04:23;1.20;;;1.20;;
14373;SDS011;7270;49.004;12.066;2023-04-25T04:06:49;1.10;;;1.10;;
14373;SDS011;7270;49.004;12.066;2023-04-25T04:09:17;1.20;;;1.20;;
14373;SDS011;7270;49.004;12.066;2023-04-25T04:11:44;1.20;;;1.20;;
14373;SDS011;7270;49.004;12.066;2023-04-25T04:14:12;1.10;;;1.10;;
14373;SDS011;7270;49.004;12.066;2023-04-25T04:16:38;1.10;;;1.10;;
14373;SDS011;7270;49.004;12.066;2023-04-25T04:19:04;1.10;;;1.10;;
14373;SDS011;7270;49.004;12.066;2023-04-25T04:21:31;1.10;;;1.10;;
14373;SDS011;7270;49.004;12.066;2023-04-25T04:23:58;1.20;;;1.20;;
14373;SDS011;7270;49.004;12.066;2023-04-25T04:26:25;1.30;;;1.20;;
14373;SDS011;7270;49.004;12.066;2023-04-25T04:28:51;1.30;;;1.20;;
14373;SDS011;7270;49.004;12.066;2023-04-25T04:31:20;1.20;;;1.20;;
14373;SDS011;7270;49.004;12.066;2023-04-25T04:33:46;1.10;;;1.10;;
14373;SDS011;7270;49.004;12.066;2023-04-25T04:36:13;1.10;;;1.10;;
14373;SDS011;7270;49.004;12.066;2023-04-25T04:38:40;1.40;;;1.30;;
14373;SDS011;7270;49.004;12.066;2023-04-25T04:41:07;1.33;;;1.23;;
14373;SDS011;7270;49.004;12.066;2023-04-25T04:43:33;1.30;;;1.20;;
14373;SDS011;7270;49.004;12.066;2023-04-25T04:46:00;1.27;;;1.20;;
14373;SDS011;7270;49.004;12.066;2023-04-25T04:48:30;1.40;;;1.30;;
14373;SDS011;7270;49.004;12.066;2023-04-25T04:50:57;1.40;;;1.30;;
14373;SDS011;7270;49.004;12.066;2023-04-25T04:53:23;1.30;;;1.20;;
14373;SDS011;7270;49.004;12.066;2023-04-25T04:55:50;1.30;;;1.20;;
14373;SDS011;7270;49.004;12.066;2023-04-25T04:58:16;1.30;;;1.20;;
14373;SDS011;7270;49.004;12.066;2023-04-25T05:00:42;1.40;;;1.30;;
14373;SDS011;7270;49.004;12.066;2023-04-25T05:03:09;1.40;;;1.30;;
14373;SDS011;7270;49.004;12.066;2023-04-25T05:05:37;1.30;;;1.20;;
14373;SDS011;7270;49.004;12.066;2023-04-25T05:08:05;1.37;;;1.27;;
14373;SDS011;7270;49.004;12.066;2023-04-25T05:10:31;1.30;;;1.20;;
14373;SDS011;7270;49.004;12.066;2023-04-25T05:12:57;1.30;;;1.20;;
14373;SDS011;7270;49.004;12.066;2023-04-25T05:15:23;1.40;;;1.30;;
14373;SDS011;7270;49.004;12.066;2023-04-25T05:17:50;1.40;;;1.30;;
14373;SDS011;7270;49.004;12.066;2023-04-25T05:20:16;1.20;;;1.20;;
14373;SDS011;7270;49.004;12.066;2023-04-25T05:22:45;1.20;;;1.20;;
14373;SDS011;7270;49.004;12.066;2023-04-25T05:25:11;1.30;;;1.20;;
14373;SDS011;7270;49.004;12.066;2023-04-25T05:27:37;1.20;;;1.20;;
14373;SDS011;7270;49.004;12.066;2023-04-25T05:30:04;1.50;;;1.40;;
14373;SDS011;7270;49.004;12.066;2023-04-25T05:32:31;1.30;;;1.20;;
14373;SDS011;7270;49.004;12.066;2023-04-25T05:34:57;1.23;;;1.20;;
14373;SDS011;7270;49.004;12.066;2023-04-25T05:37:24;1.23;;;1.20;;
14373;SDS011;7270;49.004;12.066;2023-04-25T05:39:57;1.10;;;1.10;;
14373;SDS011;7270;49.004;12.066;2023-04-25T05:42:24;1.17;;;1.10;;
14373;SDS011;7270;49.004;12.066;2023-04-25T05:44:51;1.07;;;1.07;;
14373;SDS011;7270;49.004;12.066;2023-04-25T05:47:26;1.20;;;1.20;;
14373;SDS011;7270;49.004;12.066;2023-04-25T05:49:52;1.20;;;1.20;;
14373;SDS011;7270;49.004;12.066;2023-04-25T05:52:18;1.10;;;1.10;;
14373;SDS011;7270;49.004;12.066;2023-04-25T05:54:45;1.10;;;1.10;;
14373;SDS011;7270;49.004;12.066;2023-04-25T05:57:19;1.40;;;1.30;;
14373;SDS011;7270;49.004;12.066;2023-04-25T05:59:51;1.40;;;1.30;;
14373;SDS011;7270;49.004;12.066;2023-04-25T06:02:18;1.30;;;1.20;;
14373;SDS011;7270;49.004;12.066;2023-04-25T06:04:45;1.30;;;1.20;;
14373;SDS011;7270;49.004;12.066;2023-04-25T06:07:11;1.30;;;1.20;;
14373;SDS011;7270;49.004;12.066;2023-04-25T06:09:38;1.10;;;1.10;;
14373;SDS011;7270;49.004;12.066;2023-04-25T06:12:05;1.27;;;1.20;;
14373;SDS011;7270;49.004;12.066;2023-04-25T06:14:32;1.10;;;1.10;;
14373;SDS011;7270;49.004;12.066;2023-04-25T06:16:59;1.30;;;1.20;;
14373;SDS011;7270;49.004;12.066;2023-04-25T06:19:31;1.23;;;1.20;;
14373;SDS011;7270;49.004;12.066;2023-04-25T06:21:57;1.10;;;1.10;;
14373;SDS011;7270;49.004;12.066;2023-04-25T06:24:23;1.10;;;1.10;;
14373;SDS011;7270;49.004;12.066;2023-04-25T06:26:50;0.90;;;0.90;;
14373;SDS011;7270;49.004;12.066;2023-04-25T06:29:16;0.90;;;0.90;;
14373;SDS011;7270;49.004;12.066;2023-04-25T06:31:43;0.90;;;0.90;;
14373;SDS011;7270;49.004;12.066;2023-04-25T06:34:10;1.00;;;1.00;;
14373;SDS011;7270;49.004;12.066;2023-04-25T06:36:36;1.00;;;1.00;;
14373;SDS011;7270;49.004;12.066;2023-04-25T06:39:02;1.00;;;1.00;;
14373;SDS011;7270;49.004;12.066;2023-04-25T06:41:29;1.00;;;1.00;;
14373;SDS011;7270;49.004;12.066;2023-04-25T06:43:55;1.00;;;1.00;;
14373;SDS011;7270;49.004;12.066;2023-04-25T06:46:21;0.90;;;0.90;;
14373;SDS011;7270;49.004;12.066;2023-04-25T06:48:55;0.90;;;0.90;;
14373;SDS011;7270;49.004;12.066;2023-04-25T06:51:21;0.90;;;0.90;;
14373;SDS011;7270;49.004;12.066;2023-04-25T06:53:49;0.90;;;0.90;;
14373;SDS011;7270;49.004;12.066;2023-04-25T06:56:15;0.90;;;0.90;;
14373;SDS011;7270;49.004;12.066;2023-04-25T06:58:42;0.90;;;0.90;;
14373;SDS011;7270;49.004;12.066;2023-04-25T07:01:08;0.90;;;0.90;;
14373;SDS011;7270;49.004;12.066;2023-04-25T07:03:34;0.90;;;0.90;;
14373;SDS011;7270;49.004;12.066;2023-04-25T07:06:04;1.00;;;1.00;;
14373;SDS011;7270;49.004;12.066;2023-04-25T07:08:31;0.90;;;0.90;;
14373;SDS011;7270;49.004;12.066;2023-04-25T07:10:57;1.00;;;1.00;;
14373;SDS011;7270;49.004;12.066;2023-04-25T07:13:23;1.00;;;1.00;;
14373;SDS011;7270;49.004;12.066;2023-04-25T07:15:53;1.00;;;1.00;;
14373;SDS011;7270;49.004;12.066;2023-04-25T07:18:19;1.00;;;1.00;;
14373;SDS011;7270;49.004;12.066;2023-04-25T07:20:45;1.00;;;1.00;;
14373;SDS011;7270;49.004;12.066;2023-04-25T07:23:13;1.00;;;1.00;;
14373;SDS011;7270;49.004;12.066;2023-04-25T07:25:39;1.00;;;1.00;;
14373;SDS011;7270;49.004;12.066;2023-04-25T07:28:05;1.00;;;1.00;;
14373;SDS011;7270;49.004;12.066;2023-04-25T07:30:32;1.00;;;1.00;;
14373;SDS011;7270;49.004;12.066;2023-04-25T07:32:59;1.00;;;1.00;;
14373;SDS011;7270;49.004;12.066;2023-04-25T07:35:26;0.90;;;0.90;;
14373;SDS011;7270;49.004;12.066;2023-04-25T07:37:52;0.90;;;0.90;;
14373;SDS011;7270;49.004;12.066;2023-04-25T07:40:20;1.00;;;1.00;;
14373;SDS011;7270;49.004;12.066;2023-04-25T07:42:46;1.00;;;1.00;;
14373;SDS011;7270;49.004;12.066;2023-04-25T07:45:12;1.00;;;1.00;;
14373;SDS011;7270;49.004;12.066;2023-04-25T07:47:39;1.10;;;1.10;;
14373;SDS011;7270;49.004;12.066;2023-04-25T07:50:06;0.90;;;0.90;;
14373;SDS011;7270;49.004;12.066;2023-04-25T07:52:32;0.97;;;0.97;;
14373;SDS011;7270;49.004;12.066;2023-04-25T07:54:59;1.00;;;1.00;;
14373;SDS011;7270;49.004;12.066;2023-04-25T07:57:26;0.90;;;0.90;;
14373;SDS011;7270;49.004;12.066;2023-04-25T07:59:53;1.00;;;1.00;;
14373;SDS011;7270;49.004;12.066;2023-04-25T08:02:20;1.00;;;1.00;;
14373;SDS011;7270;49.004;12.066;2023-04-25T08:04:46;1.00;;;1.00;;
14373;SDS011;7270;49.004;12.066;2023-04-25T08:07:14;1.00;;;1.00;;
14373;SDS011;7270;49.004;12.066;2023-04-25T08:09:40;1.00;;;1.00;;
14373;SDS011;7270;49.004;12.066;2023-04-25T08:12:07;1.00;;;1.00;;
14373;SDS011;7270;49.004;12.066;2023-04-25T08:14:34;1.00;;;1.00;;
14373;SDS011;7270;49.004;12.066;2023-04-25T08:17:02;1.00;;;1.00;;
14373;SDS011;7270;49.004;12.066;2023-04-25T08:19:28;1.10;;;1.10;;
14373;SDS011;7270;49.004;12.066;2023-04-25T08:21:55;1.10;;;1.10;;
14373;SDS011;7270;49.004;12.066;2023-04-25T08:24:21;1.00;;;1.00;;
14373;SDS011;7270;49.004;12.066;2023-04-25T08:26:48;1.10;;;1.10;;
14373;SDS011;7270;49.004;12.066;2023-04-25T08:29:14;1.10;;;1.10;;
14373;SDS011;7270;49.004;12.066;2023-04-25T08:31:42;1.10;;;1.10;;
14373;SDS011;7270;49.004;12.066;2023-04-25T08:34:08;1.10;;;1.10;;
14373;SDS011;7270;49.004;12.066;2023-04-25T08:36:34;1.10;;;1.10;;
14373;SDS011;7270;49.004;12.066;2023-04-25T08:39:01;1.10;;;1.10;;
14373;SDS011;7270;49.004;12.066;2023-04-25T08:41:27;1.10;;;1.10;;
14373;SDS011;7270;49.004;12.066;2023-04-25T08:43:54;1.10;;;1.10;;
14373;SDS011;7270;49.004;12.066;2023-04-25T08:46:22;1.17;;;1.17;;
14373;SDS011;7270;49.004;12.066;2023-04-25T08:48:50;1.10;;;1.10;;
14373;SDS011;7270;49.004;12.066;2023-04-25T08:51:21;1.03;;;1.03;;
14373;SDS011;7270;49.004;12.066;2023-04-25T08:53:48;1.60;;;1.50;;
14373;SDS011;7270;49.004;12.066;2023-04-25T08:56:15;1.00;;;1.00;;
14373;SDS011;7270;49.004;12.066;2023-04-25T08:58:42;1.10;;;1.10;;
14373;SDS011;7270;49.004;12.066;2023-04-25T09:01:16;1.10;;;1.10;;
14373;SDS011;7270;49.004;12.066;2023-04-25T09:03:43;1.10;;;1.10;;
14373;SDS011;7270;49.004;12.066;2023-04-25T09:06:11;1.00;;;1.00;;
14373;SDS011;7270;49.004;12.066;2023-04-25T09:08:37;1.10;;;1.10;;
14373;SDS011;7270;49.004;12.066;2023-04-25T09:11:05;1.10;;;1.10;;
14373;SDS011;7270;49.004;12.066;2023-04-25T09:13:32;1.10;;;1.10;;
14373;SDS011;7270;49.004;12.066;2023-04-25T09:15:58;1.10;;;1.10;;
14373;SDS011;7270;49.004;12.066;2023-04-25T09:18:25;1.20;;;1.20;;
14373;SDS011;7270;49.004;12.066;2023-04-25T09:20:52;1.10;;;1.10;;
14373;SDS011;7270;49.004;12.066;2023-04-25T09:23:20;1.10;;;1.10;;
14373;SDS011;7270;49.004;12.066;2023-04-25T09:25:47;1.10;;;1.10;;
14373;SDS011;7270;49.004;12.066;2023-04-25T09:28:22;1.10;;;1.10;;
14373;SDS011;7270;49.004;12.066;2023-04-25T09:30:49;1.50;;;1.40;;
14373;SDS011;7270;49.004;12.066;2023-04-25T09:33:15;1.50;;;1.40;;
14373;SDS011;7270;49.004;12.066;2023-04-25T09:35:42;1.50;;;1.40;;
14373;SDS011;7270;49.004;12.066;2023-04-25T09:38:12;1.40;;;1.30;;
14373;SDS011;7270;49.004;12.066;2023-04-25T09:40:40;1.53;;;1.43;;
14373;SDS011;7270;49.004;12.066;2023-04-25T09:43:09;1.60;;;1.50;;
14373;SDS011;7270;49.004;12.066;2023-04-25T09:48:15;1.40;;;1.30;;
14373;SDS011;7270;49.004;12.066;2023-04-25T09:50:42;1.60;;;1.50;;
14373;SDS011;7270;49.004;12.066;2023-04-25T09:53:11;1.43;;;1.33;;
14373;SDS011;7270;49.004;12.066;2023-04-25T09:55:37;1.50;;;1.40;;
14373;SDS011;7270;49.004;12.066;2023-04-25T09:58:05;1.40;;;1.30;;
14373;SDS011;7270;49.004;12.066;2023-04-25T10:00:32;1.50;;;1.40;;
14373;SDS011;7270;49.004;12.066;2023-04-25T10:02:59;1.50;;;1.40;;
14373;SDS011;7270;49.004;12.066;2023-04-25T10:05:32;1.50;;;1.40;;
14373;SDS011;7270;49.004;12.066;2023-04-25T10:08:01;1.50;;;1.40;;
14373;SDS011;7270;49.004;12.066;2023-04-25T10:10:28;1.50;;;1.40;;
14373;SDS011;7270;49.004;12.066;2023-04-25T10:12:57;1.60;;;1.50;;
14373;SDS011;7270;49.004;12.066;2023-04-25T10:15:25;1.50;;;1.40;;
14373;SDS011;7270;49.004;12.066;2023-04-25T10:17:52;1.50;;;1.40;;
14373;SDS011;7270;49.004;12.066;2023-04-25T10:20:18;1.50;;;1.40;;
14373;SDS011;7270;49.004;12.066;2023-04-25T10:22:45;1.10;;;1.10;;
14373;SDS011;7270;49.004;12.066;2023-04-25T10:25:13;0.90;;;0.90;;
14373;SDS011;7270;49.004;12.066;2023-04-25T10:27:39;1.00;;;1.00;;
14373;SDS011;7270;49.004;12.066;2023-04-25T10:30:06;1.10;;;1.10;;
14373;SDS011;7270;49.004;12.066;2023-04-25T10:32:36;1.10;;;1.10;;
14373;SDS011;7270;49.004;12.066;2023-04-25T10:35:13;1.50;;;1.40;;
14373;SDS011;7270;49.004;12.066;2023-04-25T10:40:21;1.50;;;1.40;;
14373;SDS011;7270;49.004;12.066;2023-04-25T10:42:48;1.50;;;1.40;;
14373;SDS011;7270;49.004;12.066;2023-04-25T10:45:14;1.50;;;1.40;;
14373;SDS011;7270;49.004;12.066;2023-04-25T10:47:44;1.50;;;1.40;;
14373;SDS011;7270;49.004;12.066;2023-04-25T10:50:10;1.50;;;1.40;;
14373;SDS011;7270;49.004;12.066;2023-04-25T10:52:38;1.50;;;1.40;;
14373;SDS011;7270;49.004;12.066;2023-04-25T10:55:05;1.50;;;1.40;;
14373;SDS011;7270;49.004;12.066;2023-04-25T10:57:32;1.50;;;1.40;;
14373;SDS011;7270;49.004;12.066;2023-04-25T11:00:05;1.50;;;1.40;;
14373;SDS011;7270;49.004;12.066;2023-04-25T11:02:31;1.50;;;1.40;;
14373;SDS011;7270;49.004;12.066;2023-04-25T11:04:59;1.50;;;1.40;;
14373;SDS011;7270;49.004;12.066;2023-04-25T11:07:39;1.60;;;1.50;;
14373;SDS011;7270;49.004;12.066;2023-04-25T11:10:10;1.47;;;1.37;;
14373;SDS011;7270;49.004;12.066;2023-04-25T11:12:36;1.50;;;1.40;;
14373;SDS011;7270;49.004;12.066;2023-04-25T11:15:03;1.40;;;1.30;;
14373;SDS011;7270;49.004;12.066;2023-04-25T11:17:30;1.60;;;1.50;;
14373;SDS011;7270;49.004;12.066;2023-04-25T11:19:56;1.50;;;1.40;;
14373;SDS011;7270;49.004;12.066;2023-04-25T11:22:24;1.20;;;1.20;;
14373;SDS011;7270;49.004;12.066;2023-04-25T11:24:52;1.10;;;1.10;;
14373;SDS011;7270;49.004;12.066;2023-04-25T11:27:18;1.20;;;1.20;;
14373;SDS011;7270;49.004;12.066;2023-04-25T11:29:45;1.20;;;1.20;;
14373;SDS011;7270;49.004;12.066;2023-04-25T11:32:13;1.20;;;1.20;;
14373;SDS011;7270;49.004;12.066;2023-04-25T11:34:42;1.10;;;1.10;;
14373;SDS011;7270;49.004;12.066;2023-04-25T11:37:08;1.10;;;1.10;;
14373;SDS011;7270;49.004;12.066;2023-04-25T11:39:38;1.10;;;1.10;;
14373;SDS011;7270;49.004;12.066;2023-04-25T11:42:08;1.20;;;1.20;;
14373;SDS011;7270;49.004;12.066;2023-04-25T11:44:34;1.10;;;1.10;;
14373;SDS011;7270;49.004;12.066;2023-04-25T11:47:01;1.20;;;1.20;;
14373;SDS011;7270;49.004;12.066;2023-04-25T11:49:30;1.10;;;1.10;;
14373;SDS011;7270;49.004;12.066;2023-04-25T11:51:56;1.10;;;1.10;;
14373;SDS011;7270;49.004;12.066;2023-04-25T11:54:22;1.10;;;1.10;;
14373;SDS011;7270;49.004;12.066;2023-04-25T11:56:50;1.10;;;1.10;;
14373;SDS011;7270;49.004;12.066;2023-04-25T12:01:49;1.10;;;1.10;;
14373;SDS011;7270;49.004;12.066;2023-04-25T12:04:16;1.27;;;1.20;;
14373;SDS011;7270;49.004;12.066;2023-04-25T12:06:43;1.10;;;1.10;;
14373;SDS011;7270;49.004;12.066;2023-04-25T12:09:11;1.30;;;1.20;;
14373;SDS011;7270;49.004;12.066;2023-04-25T12:11:41;1.10;;;1.10;;
14373;SDS011;7270;49.004;12.066;2023-04-25T12:14:10;1.20;;;1.20;;
14373;SDS011;7270;49.004;12.066;2023-04-25T12:16:40;1.10;;;1.10;;
14373;SDS011;7270;49.004;12.066;2023-04-25T12:19:06;1.10;;;1.10;;
14373;SDS011;7270;49.004;12.066;2023-04-25T12:21:33;1.20;;;1.20;;
14373;SDS011;7270;49.004;12.066;2023-04-25T12:24:07;1.20;;;1.20;;
14373;SDS011;7270;49.004;12.066;2023-04-25T12:26:45;1.30;;;1.20;;
14373;SDS011;7270;49.004;12.066;2023-04-25T12:29:16;1.23;;;1.20;;
14373;SDS011;7270;49.004;12.066;2023-04-25T12:31:42;1.20;;;1.20;;
14373;SDS011;7270;49.004;12.066;2023-04-25T12:34:08;1.20;;;1.20;;
14373;SDS011;7270;49.004;12.066;2023-04-25T12:36:35;1.10;;;1.10;;
14373;SDS011;7270;49.004;12.066;2023-04-25T12:39:01;1.50;;;1.40;;
14373;SDS011;7270;49.004;12.066;2023-04-25T12:41:29;1.60;;;1.50;;
14373;SDS011;7270;49.004;12.066;2023-04-25T12:43:55;1.70;;;1.60;;
14373;SDS011;7270;49.004;12.066;2023-04-25T12:46:23;1.60;;;1.50;;
14373;SDS011;7270;49.004;12.066;2023-04-25T12:48:49;1.60;;;1.50;;
14373;SDS011;7270;49.004;12.066;2023-04-25T12:51:16;1.50;;;1.40;;
14373;SDS011;7270;49.004;12.066;2023-04-25T12:53:42;1.60;;;1.50;;
14373;SDS011;7270;49.004;12.066;2023-04-25T12:56:08;1.60;;;1.50;;
14373;SDS011;7270;49.004;12.066;2023-04-25T12:58:40;1.60;;;1.50;;
14373;SDS011;7270;49.004;12.066;2023-04-25T13:01:09;1.60;;;1.50;;
14373;SDS011;7270;49.004;12.066;2023-04-25T13:03:38;1.40;;;1.30;;
14373;SDS011;7270;49.004;12.066;2023-04-25T13:06:04;1.60;;;1.50;;
14373;SDS011;7270;49.004;12.066;2023-04-25T13:08:31;1.70;;;1.60;;
14373;SDS011;7270;49.004;12.066;2023-04-25T13:10:57;1.70;;;1.60;;
14373;SDS011;7270;49.004;12.066;2023-04-25T13:13:23;1.60;;;1.50;;
14373;SDS011;7270;49.004;12.066;2023-04-25T13:15:52;1.60;;;1.50;;
14373;SDS011;7270;49.004;12.066;2023-04-25T13:18:18;1.70;;;1.60;;
14373;SDS011;7270;49.004;12.066;2023-04-25T13:20:46;1.60;;;1.50;;
14373;SDS011;7270;49.004;12.066;2023-04-25T13:23:12;1.60;;;1.50;;
14373;SDS011;7270;49.004;12.066;2023-04-25T13:25:39;1.60;;;1.50;;
14373;SDS011;7270;49.004;12.066;2023-04-25T13:28:05;1.60;;;1.50;;
14373;SDS011;7270;49.004;12.066;2023-04-25T13:30:31;1.70;;;1.60;;
14373;SDS011;7270;49.004;12.066;2023-04-25T13:32:58;1.60;;;1.50;;
14373;SDS011;7270;49.004;12.066;2023-04-25T13:35:28;1.70;;;1.60;;
14373;SDS011;7270;49.004;12.066;2023-04-25T13:37:55;1.70;;;1.60;;
14373;SDS011;7270;49.004;12.066;2023-04-25T13:40:22;1.70;;;1.60;;
14373;SDS011;7270;49.004;12.066;2023-04-25T13:42:48;1.60;;;1.50;;
14373;SDS011;7270;49.004;12.066;2023-04-25T13:45:16;1.70;;;1.60;;
14373;SDS011;7270;49.004;12.066;2023-04-25T13:47:42;1.70;;;1.60;;
14373;SDS011;7270;49.004;12.066;2023-04-25T13:50:09;1.60;;;1.50;;
14373;SDS011;7270;49.004;12.066;2023-04-25T13:52:35;1.50;;;1.40;;
14373;SDS011;7270;49.004;12.066;2023-04-25T13:55:03;1.60;;;1.50;;
14373;SDS011;7270;49.004;12.066;2023-04-25T13:57:31;1.60;;;1.50;;
14373;SDS011;7270;49.004;12.066;2023-04-25T13:59:58;1.70;;;1.60;;
14373;SDS011;7270;49.004;12.066;2023-04-25T14:02:29;1.70;;;1.60;;
14373;SDS011;7270;49.004;12.066;2023-04-25T14:04:56;1.60;;;1.50;;
14373;SDS011;7270;49.004;12.066;2023-04-25T14:07:22;1.50;;;1.40;;
14373;SDS011;7270;49.004;12.066;2023-04-25T14:09:48;1.67;;;1.57;;
14373;SDS011;7270;49.004;12.066;2023-04-25T14:12:16;1.57;;;1.47;;
14373;SDS011;7270;49.004;12.066;2023-04-25T14:14:42;1.50;;;1.40;;
14373;SDS011;7270;49.004;12.066;2023-04-25T14:17:09;1.50;;;1.40;;
14373;SDS011;7270;49.004;12.066;2023-04-25T14:19:35;1.50;;;1.40;;
14373;SDS011;7270;49.004;12.066;2023-04-25T14:22:03;1.70;;;1.60;;
14373;SDS011;7270;49.004;12.066;2023-04-25T14:24:29;1.60;;;1.50;;
14373;SDS011;7270;49.004;12.066;2023-04-25T14:26:56;1.50;;;1.40;;
14373;SDS011;7270;49.004;12.066;2023-04-25T14:29:23;1.50;;;1.40;;
14373;SDS011;7270;49.004;12.066;2023-04-25T14:31:50;1.50;;;1.40;;
14373;SDS011;7270;49.004;12.066;2023-04-25T14:34:16;1.40;;;1.30;;
14373;SDS011;7270;49.004;12.066;2023-04-25T14:36:42;1.70;;;1.60;;
14373;SDS011;7270;49.004;12.066;2023-04-25T14:39:09;1.50;;;1.40;;
14373;SDS011;7270;49.004;12.066;2023-04-25T14:41:35;1.60;;;1.50;;
14373;SDS011;7270;49.004;12.066;2023-04-25T14:44:01;1.50;;;1.40;;
14373;SDS011;7270;49.004;12.066;2023-04-25T14:46:29;1.50;;;1.40;;
14373;SDS011;7270;49.004;12.066;2023-04-25T14:48:55;1.60;;;1.50;;
14373;SDS011;7270;49.004;12.066;2023-04-25T14:51:22;1.50;;;1.40;;
14373;SDS011;7270;49.004;12.066;2023-04-25T14:53:48;1.50;;;1.40;;
14373;SDS011;7270;49.004;12.066;2023-04-25T14:56:15;1.60;;;1.50;;